createdAt,value
2019-02-14T00:01:12.417Z,102307.26
2019-02-14T00:03:40.150Z,102299.78
2019-02-14T00:06:07.994Z,102303.30
2019-02-14T00:08:35.748Z,102310.08
2019-02-14T00:11:03.695Z,102315.71
2019-02-14T00:13:31.464Z,102302.97
2019-02-14T00:15:59.429Z,102314.27
2019-02-14T00:18:27.253Z,102313.18
2019-02-14T00:20:56.024Z,102314.94
2019-02-14T00:23:23.806Z,102316.09
2019-02-14T00:25:51.791Z,102312.71
2019-02-14T00:28:19.541Z,102319.18
2019-02-14T00:30:47.531Z,102321.43
2019-02-14T00:33:15.339Z,102327.02
2019-02-14T00:35:43.219Z,102320.66
2019-02-14T00:38:11.081Z,102321.29
2019-02-14T00:40:39.119Z,102325.59
2019-02-14T00:43:07.035Z,102326.84
2019-02-14T00:45:34.879Z,102336.06
2019-02-14T00:48:02.777Z,102338.31
2019-02-14T00:50:30.828Z,102335.98
2019-02-14T00:52:58.611Z,102339.51
2019-02-14T00:55:26.539Z,102340.47
2019-02-14T00:57:54.331Z,102331.77
2019-02-14T01:00:22.089Z,102330.14
2019-02-14T01:02:50.093Z,102324.27
2019-02-14T01:05:17.927Z,102322.73
2019-02-14T01:07:45.722Z,102327.84
2019-02-14T01:10:13.491Z,102327.45
2019-02-14T01:12:41.331Z,102329.62
2019-02-14T01:15:09.736Z,102324.55
2019-02-14T01:17:37.545Z,102320.73
2019-02-14T01:20:05.357Z,102327.65
2019-02-14T01:22:33.883Z,102319.25
2019-02-14T01:25:01.623Z,102325.45
2019-02-14T01:27:29.477Z,102331.91
2019-02-14T01:29:57.262Z,102333.97
2019-02-14T01:32:25.564Z,102347.20
2019-02-14T01:34:53.360Z,102344.80
2019-02-14T01:37:22.000Z,102346.86
2019-02-14T01:39:49.826Z,102346.28
2019-02-14T01:42:17.889Z,102348.04
2019-02-14T01:44:46.053Z,102345.22
2019-02-14T01:47:14.594Z,102344.65
2019-02-14T01:49:42.465Z,102350.99
2019-02-14T01:52:10.426Z,102355.83
2019-02-14T01:54:39.383Z,102358.78
2019-02-14T01:57:07.138Z,102359.98
2019-02-14T01:59:34.919Z,102375.41
2019-02-14T02:02:03.692Z,102369.00
2019-02-14T02:04:32.362Z,102370.95
2019-02-14T02:07:00.244Z,102373.49
2019-02-14T02:09:28.210Z,102366.05
2019-02-14T02:11:55.951Z,102363.99
2019-02-14T02:14:23.702Z,102364.27
2019-02-14T02:16:51.630Z,102355.19
2019-02-14T02:19:19.707Z,102354.81
2019-02-14T02:21:47.470Z,102348.13
2019-02-14T02:24:15.406Z,102341.86
2019-02-14T02:26:43.174Z,102341.38
2019-02-14T02:29:10.934Z,102337.70
2019-02-14T02:31:38.697Z,102329.11
2019-02-14T02:34:06.676Z,102332.98
2019-02-14T02:36:34.441Z,102329.92
2019-02-14T02:39:04.066Z,102328.16
2019-02-14T02:41:31.859Z,102327.78
2019-02-14T02:43:59.609Z,102330.28
2019-02-14T02:46:27.405Z,102340.34
2019-02-14T02:48:55.191Z,102338.47
2019-02-14T02:51:22.977Z,102347.19
2019-02-14T02:53:50.715Z,102336.49
2019-02-14T02:56:18.546Z,102335.50
2019-02-14T02:58:46.502Z,102335.73
2019-02-14T03:01:14.304Z,102341.56
2019-02-14T03:03:42.207Z,102354.48
2019-02-14T03:06:10.881Z,102355.72
2019-02-14T03:08:39.048Z,102364.39
2019-02-14T03:11:06.897Z,102366.58
2019-02-14T03:13:34.678Z,102372.16
2019-02-14T03:16:02.574Z,102366.64
2019-02-14T03:18:30.329Z,102359.58
2019-02-14T03:20:58.090Z,102346.94
2019-02-14T03:23:25.884Z,102347.42
2019-02-14T03:25:53.642Z,102360.90
2019-02-14T03:28:21.394Z,102362.69
2019-02-14T03:30:49.180Z,102355.69
2019-02-14T03:33:16.915Z,102345.30
2019-02-14T03:35:44.871Z,102345.27
2019-02-14T03:38:12.801Z,102352.16
2019-02-14T03:40:40.766Z,102362.50
2019-02-14T03:43:08.490Z,102359.42
2019-02-14T03:45:36.473Z,102365.89
2019-02-14T03:48:04.261Z,102365.66
2019-02-14T03:50:32.266Z,102381.63
2019-02-14T03:53:00.225Z,102386.84
2019-02-14T03:55:28.034Z,102382.95
2019-02-14T03:57:55.774Z,102377.88
2019-02-14T04:00:23.722Z,102371.12
2019-02-14T04:02:51.519Z,102368.98
2019-02-14T04:05:19.445Z,102363.06
2019-02-14T04:07:47.253Z,102378.61
2019-02-14T04:10:15.189Z,102386.36
2019-02-14T04:12:42.954Z,102386.43
2019-02-14T04:15:13.068Z,102381.14
2019-02-14T04:17:40.828Z,102378.20
2019-02-14T04:20:08.852Z,102390.70
2019-02-14T04:22:36.646Z,102398.98
2019-02-14T04:25:04.965Z,102411.40
2019-02-14T04:27:32.706Z,102408.06
2019-02-14T04:30:00.528Z,102409.93
2019-02-14T04:32:28.317Z,102409.59
2019-02-14T04:34:56.249Z,102405.92
2019-02-14T04:37:24.018Z,102410.52
2019-02-14T04:39:51.769Z,102417.09
2019-02-14T04:42:19.572Z,102417.83
2019-02-14T04:44:47.541Z,102406.47
2019-02-14T04:47:15.338Z,102394.61
2019-02-14T04:49:44.371Z,102386.52
2019-02-14T04:52:12.187Z,102399.80
2019-02-14T04:54:39.938Z,102401.59
2019-02-14T04:57:07.721Z,102407.02
2019-02-14T04:59:35.633Z,102388.19
2019-02-14T05:02:03.539Z,102397.53
2019-02-14T05:04:31.527Z,102399.84
2019-02-14T05:06:59.280Z,102393.11
2019-02-14T05:09:27.211Z,102390.95
2019-02-14T05:11:55.039Z,102405.20
2019-02-14T05:14:23.031Z,102419.00
2019-02-14T05:16:50.997Z,102424.47
2019-02-14T05:19:18.784Z,102436.70
2019-02-14T05:21:46.768Z,102409.14
2019-02-14T05:24:14.741Z,102407.45
2019-02-14T05:26:42.672Z,102426.61
2019-02-14T05:29:10.479Z,102420.67
2019-02-14T05:31:38.260Z,102410.72
2019-02-14T05:34:06.088Z,102417.80
2019-02-14T05:36:35.164Z,102429.28
2019-02-14T05:39:04.006Z,102416.80
2019-02-14T05:41:32.037Z,102402.44
2019-02-14T05:43:59.972Z,102416.80
2019-02-14T05:46:27.910Z,102399.48
2019-02-14T05:48:55.683Z,102392.48
2019-02-14T05:51:23.747Z,102394.62
2019-02-14T05:53:51.512Z,102408.59
2019-02-14T05:56:19.249Z,102407.59
2019-02-14T05:58:47.080Z,102401.78
2019-02-14T06:01:17.470Z,102403.10
2019-02-14T06:03:45.271Z,102423.50
2019-02-14T06:06:13.045Z,102425.49
2019-02-14T06:08:40.870Z,102420.98
2019-02-14T06:11:08.803Z,102419.03
2019-02-14T06:13:36.543Z,102428.45
2019-02-14T06:16:04.471Z,102428.06
2019-02-14T06:18:32.236Z,102433.92
2019-02-14T06:21:00.024Z,102440.25
2019-02-14T06:23:27.811Z,102446.72
2019-02-14T06:25:55.582Z,102443.67
2019-02-14T06:28:23.348Z,102425.84
2019-02-14T06:30:51.165Z,102405.84
2019-02-14T06:33:18.983Z,102401.61
2019-02-14T06:35:46.771Z,102413.76
2019-02-14T06:38:14.561Z,102429.64
2019-02-14T06:40:42.325Z,102444.92
2019-02-14T06:43:10.188Z,102442.77
2019-02-14T06:45:37.977Z,102426.59
2019-02-14T06:48:05.733Z,102428.64
2019-02-14T06:50:34.966Z,102429.33
2019-02-14T06:53:02.856Z,102422.64
2019-02-14T06:55:30.649Z,102421.77
2019-02-14T06:57:58.482Z,102437.80
2019-02-14T07:00:26.251Z,102438.52
2019-02-14T07:02:54.019Z,102452.33
2019-02-14T07:05:23.191Z,102440.06
2019-02-14T07:07:51.075Z,102434.05
2019-02-14T07:10:18.883Z,102423.88
2019-02-14T07:12:46.693Z,102425.26
2019-02-14T07:15:14.514Z,102419.41
2019-02-14T07:17:42.315Z,102434.61
2019-02-14T07:20:12.065Z,102447.17
2019-02-14T07:22:40.035Z,102444.59
2019-02-14T07:25:08.469Z,102449.52
2019-02-14T07:27:36.201Z,102452.98
2019-02-14T07:30:07.823Z,102465.09
2019-02-14T07:32:35.584Z,102461.06
2019-02-14T07:35:03.605Z,102476.73
2019-02-14T07:37:31.357Z,102468.86
2019-02-14T07:39:59.145Z,102473.00
2019-02-14T07:42:26.884Z,102489.77
2019-02-14T07:44:54.662Z,102484.67
2019-02-14T07:47:22.442Z,102491.44
2019-02-14T07:49:50.267Z,102495.56
2019-02-14T07:52:24.993Z,102489.93
2019-02-14T07:54:47.935Z,102487.17
2019-02-14T07:57:15.678Z,102497.25
2019-02-14T07:59:43.599Z,102502.02
2019-02-14T08:02:11.680Z,102502.84
2019-02-14T08:04:39.500Z,102518.89
2019-02-14T08:07:07.366Z,102514.05
2019-02-14T08:09:35.174Z,102503.17
2019-02-14T08:12:02.942Z,102497.47
2019-02-14T08:14:30.710Z,102501.13
2019-02-14T08:16:58.526Z,102506.53
2019-02-14T08:19:26.401Z,102489.66
2019-02-14T08:21:54.174Z,102502.23
2019-02-14T08:24:21.939Z,102508.72
2019-02-14T08:26:49.762Z,102506.59
2019-02-14T08:29:17.518Z,102493.05
2019-02-14T08:31:45.379Z,102487.77
2019-02-14T08:34:13.141Z,102488.80
2019-02-14T08:36:40.957Z,102482.53
2019-02-14T08:39:09.089Z,102484.45
2019-02-14T08:41:36.978Z,102481.75
2019-02-14T08:44:04.917Z,102481.84
2019-02-14T08:46:32.715Z,102479.42
2019-02-14T08:49:00.705Z,102475.37
2019-02-14T08:51:28.461Z,102473.44
2019-02-14T08:53:56.405Z,102482.90
2019-02-14T08:56:24.241Z,102483.91
2019-02-14T08:58:52.197Z,102487.44
2019-02-14T09:01:20.033Z,102487.92
2019-02-14T09:03:47.849Z,102488.11
2019-02-14T09:06:15.691Z,102484.36
2019-02-14T09:08:43.461Z,102487.84
2019-02-14T09:11:11.589Z,102471.11
2019-02-14T09:13:39.366Z,102458.54
2019-02-14T09:16:07.184Z,102452.16
2019-02-14T09:18:34.950Z,102452.22
2019-02-14T09:21:02.731Z,102455.45
2019-02-14T09:23:30.549Z,102457.50
2019-02-14T09:25:58.309Z,102462.59
2019-02-14T09:28:26.099Z,102447.88
2019-02-14T09:30:53.863Z,102445.86
2019-02-14T09:33:21.783Z,102442.26
2019-02-14T09:35:49.532Z,102449.69
2019-02-14T09:38:17.349Z,102448.83
2019-02-14T09:40:45.126Z,102442.88
2019-02-14T09:43:13.037Z,102433.43
2019-02-14T09:45:40.774Z,102426.28
2019-02-14T09:48:08.601Z,102434.73
2019-02-14T09:50:36.399Z,102437.80
2019-02-14T09:53:04.202Z,102432.66
2019-02-14T09:55:31.998Z,102432.65
2019-02-14T09:57:59.782Z,102432.09
2019-02-14T10:00:27.598Z,102426.57
2019-02-14T10:02:55.492Z,102431.47
2019-02-14T10:05:23.254Z,102432.45
2019-02-14T10:07:51.069Z,102436.23
2019-02-14T10:10:18.899Z,102431.11
2019-02-14T10:12:46.692Z,102437.13
2019-02-14T10:15:14.541Z,102439.08
2019-02-14T10:17:42.321Z,102432.98
2019-02-14T10:20:12.876Z,102430.88
2019-02-14T10:22:40.877Z,102425.69
2019-02-14T10:25:09.271Z,102420.83
2019-02-14T10:27:37.116Z,102420.25
2019-02-14T10:30:09.221Z,102418.66
2019-02-14T10:32:39.354Z,102400.91
2019-02-14T10:35:07.168Z,102397.22
2019-02-14T10:37:34.977Z,102388.72
2019-02-14T10:40:03.156Z,102384.91
2019-02-14T10:42:30.954Z,102381.24
2019-02-14T10:44:58.742Z,102374.88
2019-02-14T10:47:26.587Z,102373.91
2019-02-14T10:49:54.376Z,102392.00
2019-02-14T10:52:22.177Z,102392.74
2019-02-14T10:54:49.962Z,102396.33
2019-02-14T10:57:17.683Z,102408.26
2019-02-14T10:59:45.555Z,102398.58
2019-02-14T11:02:13.745Z,102399.61
2019-02-14T11:04:41.549Z,102389.30
2019-02-14T11:07:09.382Z,102387.77
2019-02-14T11:09:37.156Z,102381.09
2019-02-14T11:12:04.875Z,102383.55
2019-02-14T11:14:32.740Z,102390.26
2019-02-14T11:17:00.537Z,102397.09
2019-02-14T11:19:28.402Z,102394.61
2019-02-14T11:21:56.167Z,102399.48
2019-02-14T11:24:23.977Z,102394.22
2019-02-14T11:26:51.789Z,102402.03
2019-02-14T11:29:19.710Z,102395.22
2019-02-14T11:31:47.511Z,102403.06
2019-02-14T11:34:15.335Z,102401.05
2019-02-14T11:36:43.135Z,102402.02
2019-02-14T11:39:10.923Z,102404.72
2019-02-14T11:41:38.742Z,102398.84
2019-02-14T11:44:06.537Z,102393.12
2019-02-14T11:46:34.307Z,102382.74
2019-02-14T11:49:02.091Z,102380.64
2019-02-14T11:51:29.854Z,102367.59
2019-02-14T11:53:57.663Z,102364.63
2019-02-14T11:56:25.455Z,102358.87
2019-02-14T11:58:53.281Z,102343.35
2019-02-14T12:01:21.125Z,102352.84
2019-02-14T12:03:48.896Z,102354.69
2019-02-14T12:06:17.665Z,102351.34
2019-02-14T12:08:57.660Z,102346.77
2019-02-14T12:11:15.504Z,102344.30
2019-02-14T12:13:43.320Z,102341.94
2019-02-14T12:16:11.111Z,102341.83
2019-02-14T12:18:38.876Z,102338.55
2019-02-14T12:21:06.672Z,102346.41
2019-02-14T12:23:34.425Z,102346.84
2019-02-14T12:26:02.192Z,102345.21
2019-02-14T12:28:30.042Z,102349.39
2019-02-14T12:30:57.877Z,102363.23
2019-02-14T12:33:25.820Z,102360.30
2019-02-14T12:35:53.626Z,102358.45
2019-02-14T12:38:21.399Z,102348.89
2019-02-14T12:40:49.169Z,102351.97
2019-02-14T12:43:17.009Z,102347.02
2019-02-14T12:45:44.797Z,102344.48
2019-02-14T12:48:12.620Z,102339.55
2019-02-14T12:50:40.420Z,102341.31
2019-02-14T12:53:10.348Z,102342.00
2019-02-14T12:55:38.196Z,102334.62
2019-02-14T12:58:05.962Z,102339.02
2019-02-14T13:00:33.856Z,102335.69
2019-02-14T13:03:01.620Z,102336.18
2019-02-14T13:05:29.612Z,102336.39
2019-02-14T13:07:57.368Z,102336.09
2019-02-14T13:10:25.148Z,102329.16
2019-02-14T13:12:52.895Z,102322.41
2019-02-14T13:15:21.506Z,102316.50
2019-02-14T13:17:49.277Z,102317.81
2019-02-14T13:20:17.068Z,102314.62
2019-02-14T13:22:44.885Z,102313.80
2019-02-14T13:25:13.307Z,102310.89
2019-02-14T13:27:41.059Z,102311.24
2019-02-14T13:30:15.766Z,102306.97
2019-02-14T13:32:43.492Z,102298.59
2019-02-14T13:35:11.504Z,102298.09
2019-02-14T13:37:40.556Z,102297.89
2019-02-14T13:40:08.575Z,102301.62
2019-02-14T13:42:36.311Z,102297.42
2019-02-14T13:45:05.491Z,102301.12
2019-02-14T13:47:33.255Z,102303.64
2019-02-14T13:50:01.040Z,102307.19
2019-02-14T13:52:28.805Z,102305.98
2019-02-14T13:54:56.612Z,102298.55
2019-02-14T13:57:24.432Z,102299.91
2019-02-14T13:59:52.212Z,102297.87
2019-02-14T14:02:19.998Z,102303.99
2019-02-14T14:04:47.829Z,102305.66
2019-02-14T14:07:15.614Z,102316.14
2019-02-14T14:09:43.415Z,102310.39
2019-02-14T14:12:11.160Z,102309.39
2019-02-14T14:14:38.976Z,102309.45
2019-02-14T14:17:06.797Z,102317.81
2019-02-14T14:19:34.610Z,102311.38
2019-02-14T14:22:02.493Z,102307.19
2019-02-14T14:24:30.381Z,102313.77
2019-02-14T14:27:01.385Z,102307.19
2019-02-14T14:29:29.163Z,102310.31
2019-02-14T14:31:56.984Z,102311.75
2019-02-14T14:34:24.753Z,102307.58
2019-02-14T14:36:52.535Z,102303.77
2019-02-14T14:39:20.311Z,102302.25
2019-02-14T14:41:48.093Z,102298.98
2019-02-14T14:44:38.489Z,102291.23
2019-02-14T14:47:15.361Z,102289.41
2019-02-14T14:49:43.151Z,102286.91
2019-02-14T14:52:10.976Z,102284.00
2019-02-14T14:54:38.944Z,102295.69
2019-02-14T14:57:09.137Z,102289.87
2019-02-14T14:59:36.944Z,102285.27
2019-02-14T15:02:04.953Z,102291.13
2019-02-14T15:04:32.710Z,102289.52
2019-02-14T15:07:00.481Z,102291.23
2019-02-14T15:09:28.301Z,102285.17
2019-02-14T15:11:56.525Z,102285.81
2019-02-14T15:14:24.378Z,102280.48
2019-02-14T15:16:52.197Z,102280.40
2019-02-14T15:19:20.001Z,102283.87
2019-02-14T15:21:47.913Z,102284.78
2019-02-14T15:24:15.734Z,102283.51
2019-02-14T15:26:43.516Z,102279.42
2019-02-14T15:29:11.288Z,102280.27
2019-02-14T15:31:39.105Z,102278.59
2019-02-14T15:34:07.714Z,102281.50
2019-02-14T15:36:35.519Z,102278.19
2019-02-14T15:39:05.335Z,102281.95
2019-02-14T15:41:33.125Z,102282.84
2019-02-14T15:44:00.959Z,102283.20
2019-02-14T15:46:28.764Z,102287.16
2019-02-14T15:48:56.529Z,102297.87
2019-02-14T15:51:24.448Z,102288.55
2019-02-14T15:53:52.208Z,102289.59
2019-02-14T15:56:20.027Z,102292.80
2019-02-14T15:58:48.068Z,102286.52
2019-02-14T16:01:16.579Z,102297.32
2019-02-14T16:03:45.596Z,102303.15
2019-02-14T16:06:13.394Z,102298.59
2019-02-14T16:08:41.169Z,102299.23
2019-02-14T16:11:10.182Z,102296.25
2019-02-14T16:13:38.686Z,102296.12
2019-02-14T16:16:06.493Z,102297.81
2019-02-14T16:18:34.292Z,102301.55
2019-02-14T16:21:03.711Z,102293.81
2019-02-14T16:23:32.826Z,102299.38
2019-02-14T16:26:01.477Z,102295.15
2019-02-14T16:28:29.546Z,102294.29
2019-02-14T16:30:57.334Z,102292.95
2019-02-14T16:33:25.076Z,102286.66
2019-02-14T16:35:52.892Z,102288.77
2019-02-14T16:38:20.729Z,102289.08
2019-02-14T16:40:48.539Z,102281.78
2019-02-14T16:43:16.293Z,102287.98
2019-02-14T16:45:44.088Z,102282.70
2019-02-14T16:48:11.964Z,102283.84
2019-02-14T16:50:39.802Z,102283.66
2019-02-14T16:53:07.674Z,102286.47
2019-02-14T16:55:35.851Z,102281.26
2019-02-14T16:58:03.590Z,102281.70
2019-02-14T17:00:31.713Z,102282.20
2019-02-14T17:02:59.847Z,102287.37
2019-02-14T17:05:27.604Z,102283.34
2019-02-14T17:07:56.178Z,102285.98
2019-02-14T17:10:24.127Z,102286.31
2019-02-14T17:12:51.935Z,102287.93
2019-02-14T17:15:19.752Z,102289.03
2019-02-14T17:17:47.557Z,102286.91
2019-02-14T17:20:15.315Z,102294.03
2019-02-14T17:22:43.148Z,102290.45
2019-02-14T17:25:10.920Z,102292.84
2019-02-14T17:27:38.816Z,102292.47
2019-02-14T17:30:06.696Z,102293.80
2019-02-14T17:32:34.486Z,102295.52
2019-02-14T17:35:02.455Z,102289.78
2019-02-14T17:37:30.318Z,102294.13
2019-02-14T17:39:58.148Z,102301.81
2019-02-14T17:42:25.966Z,102304.23
2019-02-14T17:44:53.764Z,102302.52
2019-02-14T17:47:21.570Z,102296.16
2019-02-14T17:49:49.366Z,102299.02
2019-02-14T17:52:17.237Z,102299.00
2019-02-14T17:54:45.114Z,102302.65
2019-02-14T17:57:12.938Z,102302.70
2019-02-14T17:59:40.846Z,102308.44
2019-02-14T18:02:08.666Z,102308.88
2019-02-14T18:04:36.470Z,102307.84
2019-02-14T18:07:04.613Z,102314.66
2019-02-14T18:09:32.558Z,102309.68
2019-02-14T18:12:00.379Z,102315.46
2019-02-14T18:14:28.244Z,102318.67
2019-02-14T18:16:56.540Z,102315.29
2019-02-14T18:19:24.346Z,102317.55
2019-02-14T18:21:52.165Z,102313.44
2019-02-14T18:24:21.650Z,102320.23
2019-02-14T18:26:49.487Z,102317.05
2019-02-14T18:29:17.312Z,102317.95
2019-02-14T18:31:45.102Z,102314.78
2019-02-14T18:34:12.955Z,102317.75
2019-02-14T18:36:40.772Z,102318.94
2019-02-14T18:39:08.571Z,102320.03
2019-02-14T18:41:36.369Z,102326.71
2019-02-14T18:44:04.323Z,102322.88
2019-02-14T18:46:32.138Z,102320.34
2019-02-14T18:48:59.917Z,102320.34
2019-02-14T18:51:27.757Z,102318.60
2019-02-14T18:53:55.531Z,102326.34
2019-02-14T18:56:23.381Z,102319.85
2019-02-14T18:58:51.173Z,102323.23
2019-02-14T19:01:18.992Z,102314.18
2019-02-14T19:03:46.987Z,102318.29
2019-02-14T19:06:14.784Z,102323.38
2019-02-14T19:08:42.569Z,102322.41
2019-02-14T19:11:15.079Z,102322.88
2019-02-14T19:13:40.095Z,102323.14
2019-02-14T19:16:07.903Z,102318.48
2019-02-14T19:18:35.755Z,102314.20
2019-02-14T19:21:06.576Z,102320.83
2019-02-14T19:23:34.380Z,102314.98
2019-02-14T19:26:02.202Z,102313.16
2019-02-14T19:28:32.598Z,102313.94
2019-02-14T19:31:02.830Z,102320.00
2019-02-14T19:33:30.650Z,102313.72
2019-02-14T19:35:58.459Z,102317.05
2019-02-14T19:38:26.582Z,102318.84
2019-02-14T19:40:57.240Z,102315.80
2019-02-14T19:43:25.148Z,102319.53
2019-02-14T19:45:52.931Z,102315.29
2019-02-14T19:48:20.720Z,102315.58
2019-02-14T19:50:48.503Z,102322.86
2019-02-14T19:53:16.293Z,102319.75
2019-02-14T19:55:44.121Z,102317.05
2019-02-14T19:58:11.949Z,102313.31
2019-02-14T20:00:39.839Z,102313.80
2019-02-14T20:03:07.696Z,102319.38
2019-02-14T20:05:35.495Z,102324.30
2019-02-14T20:08:03.566Z,102315.14
2019-02-14T20:10:31.429Z,102317.38
2019-02-14T20:12:59.308Z,102313.56
2019-02-14T20:15:36.509Z,102309.21
2019-02-14T20:17:59.182Z,102313.08
2019-02-14T20:20:28.252Z,102303.63
2019-02-14T20:22:56.220Z,102302.58
2019-02-14T20:25:24.088Z,102297.45
2019-02-14T20:27:51.920Z,102305.82
2019-02-14T20:30:19.668Z,102306.11
2019-02-14T20:32:47.511Z,102305.48
2019-02-14T20:35:15.262Z,102292.11
2019-02-14T20:37:43.083Z,102294.02
2019-02-14T20:40:10.865Z,102296.32
2019-02-14T20:42:38.712Z,102294.21
2019-02-14T20:45:08.713Z,102290.09
2019-02-14T20:47:36.749Z,102287.75
2019-02-14T20:50:05.681Z,102288.47
2019-02-14T20:52:33.636Z,102286.27
2019-02-14T20:55:01.411Z,102279.81
2019-02-14T20:57:29.349Z,102277.13
2019-02-14T20:59:57.136Z,102281.12
2019-02-14T21:02:25.009Z,102270.21
2019-02-14T21:04:52.731Z,102268.30
2019-02-14T21:07:20.589Z,102272.75
2019-02-14T21:09:48.434Z,102276.11
2019-02-14T21:12:16.302Z,102274.72
2019-02-14T21:14:44.113Z,102266.45
2019-02-14T21:17:11.881Z,102272.72
2019-02-14T21:19:39.704Z,102265.41
2019-02-14T21:22:17.891Z,102275.73
2019-02-14T21:24:39.769Z,102270.81
2019-02-14T21:27:07.737Z,102272.86
2019-02-14T21:29:35.557Z,102269.28
2019-02-14T21:32:03.458Z,102268.42
2019-02-14T21:34:31.229Z,102271.63
2019-02-14T21:36:59.023Z,102275.63
2019-02-14T21:39:26.792Z,102278.59
2019-02-14T21:42:17.333Z,102272.81
2019-02-14T21:44:24.313Z,102266.71
2019-02-14T21:46:52.159Z,102266.85
2019-02-14T21:49:19.974Z,102267.98
2019-02-14T21:51:47.753Z,102274.30
2019-02-14T21:54:17.458Z,102272.47
2019-02-14T21:56:45.531Z,102275.72
2019-02-14T21:59:13.355Z,102266.74
2019-02-14T22:01:41.375Z,102273.43
2019-02-14T22:04:09.267Z,102274.19
2019-02-14T22:06:37.038Z,102273.36
2019-02-14T22:09:06.016Z,102277.97
2019-02-14T22:11:34.743Z,102275.54
2019-02-14T22:14:02.960Z,102273.89
2019-02-14T22:16:30.788Z,102276.12
2019-02-14T22:18:58.574Z,102273.63
2019-02-14T22:21:26.382Z,102275.64
2019-02-14T22:23:54.176Z,102275.34
2019-02-14T22:26:21.938Z,102275.78
2019-02-14T22:28:49.748Z,102276.55
2019-02-14T22:31:17.506Z,102282.91
2019-02-14T22:33:45.312Z,102279.48
2019-02-14T22:36:14.413Z,102281.81
2019-02-14T22:38:42.875Z,102285.62
2019-02-14T22:41:10.698Z,102284.17
2019-02-14T22:43:38.466Z,102287.59
2019-02-14T22:46:06.253Z,102289.80
2019-02-14T22:48:34.099Z,102295.52
2019-02-14T22:51:01.878Z,102301.61
2019-02-14T22:53:29.854Z,102295.88
2019-02-14T22:55:57.741Z,102293.08
2019-02-14T22:58:25.613Z,102301.23
2019-02-14T23:00:59.301Z,102304.19
2019-02-14T23:03:27.125Z,102304.33
2019-02-14T23:05:54.922Z,102303.27
2019-02-14T23:08:23.029Z,102302.03
2019-02-14T23:10:50.795Z,102297.81
2019-02-14T23:13:18.599Z,102292.84
2019-02-14T23:15:46.449Z,102298.42
2019-02-14T23:18:14.269Z,102300.03
2019-02-14T23:20:42.075Z,102299.44
2019-02-14T23:23:10.097Z,102293.22
2019-02-14T23:25:37.905Z,102296.58
2019-02-14T23:28:05.690Z,102293.32
2019-02-14T23:30:33.612Z,102296.71
2019-02-14T23:33:01.392Z,102301.98
2019-02-14T23:35:29.235Z,102296.47
2019-02-14T23:37:57.047Z,102299.53
2019-02-14T23:40:25.231Z,102304.67
2019-02-14T23:42:53.106Z,102305.89
2019-02-14T23:45:20.841Z,102300.61
2019-02-14T23:47:48.633Z,102305.77
2019-02-14T23:50:16.494Z,102309.16
2019-02-14T23:52:44.319Z,102310.23
2019-02-14T23:55:12.085Z,102315.10
2019-02-14T23:57:39.955Z,102309.83
